Thornton, AR (71766)

5:33 AM CDT on May 25, 2015 (GMT -0500)
Harrell | | Change Station
CLOSE
Current Station
Airport
Location: Camden,
Elevation: 131 ft
Nearby Weather Stations

Elev 131 ft 33.62 °N, 92.76 °W | Updated 18 minutes ago

Overcast
Overcast
68 °F
Feels Like 68 °F
N
0
Wind Variable Wind from North

Today
High -- | Low -- °F
--% Chance of Precip.
Yesterday
High -- | Low -- °F
Precip. -- in
6:03 AM 8:10 PM
Waxing Crescent, 47% visible
Pressure 29.99 in
Visibility 7.0 miles
Clouds Scattered Clouds 400 ft
Overcast 900 ft
Dew Point 66 °F
Humidity 94%
Rainfall 0.00 in
Snow Depth Not available.
UV 0 out of 12
Pollen 1.40 out of 12
Air Quality Not available.
Flu Activity No Activity
METAR KCDH 251015Z AUTO 00000KT 7SM SCT004 OVC009 20/19 A2999 RMK AO2

More Conditions Fewer Conditions

Pressure 29.99 in
Visibility 7.0 miles
Clouds Scattered Clouds 400 ft
Overcast 900 ft
Dew Point 66 °F
Humidity 94%
Rainfall 0.00 in
Snow Depth Not available.
UV 0 out of 12
Pollen 1.40 out of 12
Air Quality Not available.
Flu Activity No Activity
METAR KCDH 251015Z AUTO 00000KT 7SM SCT004 OVC009 20/19 A2999 RMK AO2

More Conditions Fewer Conditions

10-Day Weather Forecast

Almanac

Astronomy

May. 25, 2015 Rise Set
Actual Time
Civil Twilight
Nautical Twilight
Astronomical Twilight
Moon
Length of Visible Light
Length of Day
Tomorrow will be .
, % of the Moon is Illuminated

Today's Extremes

State Highs State Lows

Community

WunderPhotos

Upload Photos

1,823,973 photos uploaded!

WunderBlogs® & News

Nearby

Air Quality

  Air Quality AQ Index Pollutant
Not available.

Snow Depth

Station Depth Elevation

Earthquake Activity

City Distance Mag. Time & Date
Minimum magnitude displayed is 2.5.

Coastal Water Temperatures

Place Temperature

Stations

Nearby Weather Stations

Station Location Temp. Windchill Dew Point Humidity Wind Precip. Elev Updated Type